Ana Sayfa
METAR-TAF:

METAR-TAF

Havaalanları :

Kastamonu Havalimanı

Kastamonu, Türkiye

Enlem: 41-19-01N, Boylam: 33-47-46E, yükseklik: 1073 m

Güncel hava durumu gözlemi

Rapor saat 10:50 UTC de 11 saat ve 59 dakika önce yapıldı.
Rüzgar değişken yönden 5 kt
Sıcaklık 17°C
Nem 23%
Basınç 1016 hPa
Görüş mesafesi 10 km veya daha fazla
1500 m altında bulut yok ve kümülonimbus yok

METAR: LTAL 191050Z VRB05KT CAVOK 17/M04 Q1016

Saat: 01:49 (22:49 UTC)

Tahmin

Rapor saat 13:40 UTC de 9 saat ve 9 dakika önce yapıldı.
Ayın 19'si saat 15 UTC'den ayın 19'si saat 24 UTC'ye kadar geçerli Tahmin
Rüzgar değişken yönden 2 kt
Görüş mesafesi 10 km veya daha fazla
1500 m altında bulut yok ve kümülonimbus yok

TAF: LTAL 191340Z 1915/1924 VRB02KT CAVOK

4.000'den fazla havaalanı için hava durumu gözlemleri ve tahminleri (METAR ve TAF raporları).

Kullanılabilir istasyonlar harita üzerinde sarı ve kırmızı noktalarla gösterilir.

İstasyonun adını görmek için fareyi noktanın üzerinde gezdirin.

Sonrasında hava gözlem ve tahminlerini görmek için tıklayın.

Haritayı değiştirmek için: yaklaştırmak için siyah artı işaretli yeşil düğmeye ve uzaklaştırmak için de eksi işaretli düğmeye hızla tıklayın; bitişik haritalar için yeşil okları kullanın.


METAR-TAF: